Time;durP1;ratioP1;P1;durP2;ratioP2;P2;SDS_P1;SDS_P2;PMS_P1;PMS_P2;Temp;Humidity;BMP_temperature;BMP_pressure;BME280_temperature;BME280_humidity;BME280_pressure;Samples;Min_cycle;Max_cycle;Signal;HPM_P1;HPM_P2
2024/01/07 00:00:58;;;;;;;;;56.50;44.25;;;;;13.22;70.38;99508.59;146633;569;45016;-68
2024/01/07 00:03:49;;;;;;;;;32.00;28.50;;;;;13.24;70.84;99558.06;146631;672;45020;-69
2024/01/07 00:06:45;;;;;;;;;19.00;17.00;;;;;13.20;70.72;99562.34;146621;648;48912;-67
2024/01/07 00:09:40;;;;;;;;;21.50;18.75;;;;;13.16;71.01;99563.12;146633;577;45020;-68
2024/01/07 00:12:38;;;;;;;;;17.00;15.75;;;;;13.14;71.26;99555.25;146630;598;45011;-67
2024/01/07 00:15:36;;;;;;;;;8.00;7.00;;;;;13.03;71.34;99564.56;146634;628;46020;-67
2024/01/07 00:18:30;;;;;;;;;8.25;7.50;;;;;12.87;72.75;99567.69;146633;628;46016;-67
2024/01/07 00:21:27;;;;;;;;;9.75;8.75;;;;;12.76;73.22;99572.59;146634;589;45020;-69
2024/01/07 00:24:25;;;;;;;;;12.00;10.00;;;;;12.74;74.73;99587.31;146627;611;46010;-70
2024/01/07 00:27:17;;;;;;;;;15.00;14.00;;;;;12.76;74.65;99614.22;146621;577;46012;-70
2024/01/07 00:30:19;;;;;;;;;10.00;10.00;;;;;12.71;73.76;99584.63;146618;587;46012;-68
2024/01/07 00:33:13;;;;;;;;;24.00;23.75;;;;;12.70;73.88;99582.84;146619;710;46049;-70
2024/01/07 00:36:12;;;;;;;;;14.75;13.75;;;;;12.71;75.33;99577.72;146616;603;46016;-68
2024/01/07 00:39:14;;;;;;;;;18.25;15.00;;;;;12.66;74.45;99599.25;146615;634;46008;-69
2024/01/07 00:42:22;;;;;;;;;14.50;14.25;;;;;12.64;73.79;99596.59;146619;607;45913;-70
2024/01/07 00:45:14;;;;;;;;;13.50;12.50;;;;;12.65;74.58;99606.16;146619;588;46008;-69
2024/01/07 00:48:09;;;;;;;;;9.25;8.50;;;;;12.62;74.43;99615.62;146617;565;47010;-70
2024/01/07 00:51:01;;;;;;;;;12.00;11.50;;;;;12.58;74.33;99598.16;146619;638;47008;-71
2024/01/07 00:54:18;;;;;;;;;14.25;12.75;;;;;12.54;74.60;99588.53;146618;656;46016;-69
2024/01/07 00:57:22;;;;;;;;;17.50;16.50;;;;;12.57;75.68;99588.59;146620;574;46008;-68
2024/01/07 01:00:18;;;;;;;;;20.50;17.75;;;;;12.60;75.69;99594.75;146619;615;46016;-74
2024/01/07 01:03:10;;;;;;;;;14.00;11.00;;;;;12.61;74.97;99582.63;146620;572;45021;-70
2024/01/07 01:06:30;;;;;;;;;;;;;;;;;;;;;
2024/01/07 01:09:26;;;;;;;;;6.25;5.75;;;;;12.57;74.93;99568.69;146621;600;46008;-70
2024/01/07 01:12:33;;;;;;;;;0.33;0.33;;;;;12.55;74.56;99564.28;146620;608;46017;-74
2024/01/07 01:15:35;;;;;;;;;0.00;0.00;;;;;12.63;73.30;99567.97;146623;563;46008;-71
2024/01/07 01:18:30;;;;;;;;;0.33;0.33;;;;;12.64;73.11;99548.91;146621;629;45017;-72
2024/01/07 01:21:26;;;;;;;;;1.00;0.00;;;;;12.67;73.26;99538.56;146624;609;45020;-72
2024/01/07 01:24:19;;;;;;;;;1.67;1.67;;;;;12.64;73.08;99528.97;146621;572;46016;-72
2024/01/07 01:27:17;;;;;;;;;0.67;0.00;;;;;12.58;72.48;99530.53;146625;622;46008;-70
2024/01/07 01:30:14;;;;;;;;;0.50;0.25;;;;;12.53;72.03;99512.25;146617;662;46012;-71
2024/01/07 01:33:14;;;;;;;;;2.25;0.00;;;;;12.50;73.00;99477.50;146619;650;45021;-70
2024/01/07 01:36:15;;;;;;;;;0.00;0.00;;;;;12.45;73.70;99479.97;146618;625;47012;-68
2024/01/07 01:39:13;;;;;;;;;0.00;0.00;;;;;12.43;73.70;99476.47;146623;579;47008;-70
2024/01/07 01:42:08;;;;;;;;;0.33;0.00;;;;;12.45;73.58;99485.19;146615;637;47035;-72
2024/01/07 01:45:05;;;;;;;;;0.00;0.00;;;;;12.46;73.24;99476.53;146621;599;46008;-70
2024/01/07 01:47:59;;;;;;;;;0.00;0.00;;;;;12.48;73.46;99478.31;146619;579;46011;-66
2024/01/07 01:50:58;;;;;;;;;0.00;0.00;;;;;12.50;73.18;99482.72;146619;586;46020;-66
2024/01/07 01:54:03;;;;;;;;;0.00;0.00;;;;;12.44;72.87;99447.91;146621;661;46010;-70
2024/01/07 01:56:59;;;;;;;;;1.33;0.00;;;;;12.58;72.34;99458.63;146624;584;46008;-70
2024/01/07 02:00:03;;;;;;;;;1.00;1.00;;;;;12.63;71.12;99462.22;146620;605;46010;-70
2024/01/07 02:03:04;;;;;;;;;0.00;0.00;;;;;12.68;69.54;99464.94;146619;570;46009;-69
2024/01/07 02:05:57;;;;;;;;;0.33;0.00;;;;;12.71;69.11;99459.78;146620;647;46010;-71
2024/01/07 02:08:52;;;;;;;;;0.00;0.00;;;;;12.73;69.39;99446.81;146621;665;47008;-70
2024/01/07 02:11:44;;;;;;;;;0.00;0.00;;;;;12.73;68.84;99450.28;146619;670;46017;-69
2024/01/07 02:14:45;;;;;;;;;2.00;0.67;;;;;12.80;68.71;99435.69;146617;583;48022;-69
2024/01/07 02:17:44;;;;;;;;;0.33;0.33;;;;;12.88;68.80;99432.41;146620;594;46011;-68
2024/01/07 02:20:36;;;;;;;;;0.33;0.00;;;;;11.43;68.93;99175.41;146621;591;47008;-69
2024/01/07 02:23:37;;;;;;;;;0.33;0.00;;;;;13.01;67.16;99430.06;146621;597;46010;-66
2024/01/07 02:26:34;;;;;;;;;1.00;0.00;;;;;13.12;67.04;99434.66;146622;646;46020;-67
2024/01/07 02:29:29;;;;;;;;;0.00;0.00;;;;;13.20;66.12;99442.59;146616;683;48012;-66
2024/01/07 02:32:24;;;;;;;;;0.00;0.00;;;;;13.24;65.87;99438.31;146622;566;46008;-67
2024/01/07 02:35:25;;;;;;;;;0.33;0.00;;;;;13.31;65.99;99425.50;146615;577;47010;-69
2024/01/07 02:38:28;;;;;;;;;0.33;0.33;;;;;13.36;65.37;99426.50;146624;603;46008;-69
2024/01/07 02:41:29;;;;;;;;;2.25;1.00;;;;;13.42;62.61;99399.66;146617;693;46012;-67
2024/01/07 02:44:27;;;;;;;;;1.75;1.25;;;;;13.50;61.64;99405.03;146619;697;46032;-67
2024/01/07 02:47:27;;;;;;;;;2.00;0.00;;;;;13.57;60.03;99397.34;146619;564;46010;-68
2024/01/07 02:50:25;;;;;;;;;0.00;0.00;;;;;13.71;61.05;99404.56;146623;645;46020;-68
2024/01/07 02:53:17;;;;;;;;;1.00;1.00;;;;;13.69;59.47;99396.69;146619;576;45020;-66
2024/01/07 02:56:12;;;;;;;;;4.67;0.00;;;;;13.75;60.02;99369.88;146622;570;46008;-66
2024/01/07 02:59:07;;;;;;;;;2.00;0.00;;;;;13.73;59.53;99375.03;146617;577;46914;-67
2024/01/07 03:02:01;;;;;;;;;0.67;0.00;;;;;13.71;59.52;99348.13;146620;626;47008;-66
2024/01/07 03:04:53;;;;;;;;;1.00;0.00;;;;;13.72;59.24;99364.62;146618;584;46016;-68
2024/01/07 03:08:04;;;;;;;;;0.00;0.00;;;;;9.92;58.37;98708.88;146618;575;46020;-72
2024/01/07 03:11:04;;;;;;;;;2.50;0.75;;;;;13.86;57.52;99371.81;146609;591;47915;-70
2024/01/07 03:14:03;;;;;;;;;1.67;0.00;;;;;13.92;57.68;99371.00;146624;631;46020;-69
2024/01/07 03:17:14;;;;;;;;;;;;;;;;;;;;;
2024/01/07 03:20:13;;;;;;;;;0.33;0.33;;;;;14.02;58.12;99395.50;146624;572;46008;-67
2024/01/07 03:23:08;;;;;;;;;0.00;0.00;;;;;14.03;59.35;99384.22;146619;576;46914;-67
2024/01/07 03:26:18;;;;;;;;;;;;;;;;;;;;;
2024/01/07 03:29:13;;;;;;;;;1.00;0.00;;;;;14.09;59.01;99410.38;146614;593;46016;-66
2024/01/07 03:32:09;;;;;;;;;0.00;0.00;;;;;14.12;59.44;99389.59;146619;571;47008;-68
2024/01/07 03:35:08;;;;;;;;;2.00;0.00;;;;;14.10;60.11;99375.63;146618;608;46016;-69
2024/01/07 03:38:08;;;;;;;;;1.00;0.00;;;;;14.09;60.88;99369.56;146621;574;46008;-69
2024/01/07 03:41:03;;;;;;;;;0.00;0.00;;;;;14.08;59.68;99370.41;146618;599;47028;-68
2024/01/07 03:43:59;;;;;;;;;3.00;0.00;;;;;14.06;59.84;99368.63;146619;565;46020;-66
2024/01/07 03:46:55;;;;;;;;;1.00;0.33;;;;;14.06;60.11;99361.69;146618;574;46012;-68
2024/01/07 03:49:52;;;;;;;;;0.00;0.00;;;;;14.00;59.61;99360.72;146623;606;46008;-65
2024/01/07 03:52:47;;;;;;;;;0.00;0.00;;;;;13.98;59.98;99359.81;146619;581;46013;-68
2024/01/07 03:55:45;;;;;;;;;0.00;0.00;;;;;13.98;60.36;99352.00;146623;585;47008;-69
2024/01/07 03:58:41;;;;;;;;;1.67;1.33;;;;;13.97;59.75;99340.69;146617;588;47010;-70
2024/01/07 04:01:40;;;;;;;;;0.00;0.00;;;;;13.95;60.25;99359.75;146623;603;46008;-67
2024/01/07 04:04:40;;;;;;;;;1.00;0.00;;;;;13.95;59.93;99362.38;146616;678;47016;-68
2024/01/07 04:07:41;;;;;;;;;0.00;0.00;;;;;13.93;60.01;99346.72;146621;563;47020;-67
2024/01/07 04:10:36;;;;;;;;;0.00;0.00;;;;;13.94;60.06;99345.87;146615;578;46010;-66
2024/01/07 04:13:37;;;;;;;;;0.33;0.00;;;;;13.96;59.25;99348.50;146619;604;46020;-66
2024/01/07 04:16:44;;;;;;;;;0.00;0.00;;;;;13.94;58.77;99353.69;146617;592;46017;-67
2024/01/07 04:19:59;;;;;;;;;0.00;0.00;;;;;13.98;59.30;99354.59;146621;610;46008;-68
2024/01/07 04:22:52;;;;;;;;;0.00;0.00;;;;;13.98;59.60;99352.87;146616;640;46016;-67
2024/01/07 04:25:47;;;;;;;;;0.00;0.00;;;;;13.99;59.53;99353.78;146621;580;46020;-69
2024/01/07 04:28:45;;;;;;;;;0.00;0.00;;;;;14.02;59.53;99354.69;146620;610;47010;-69
2024/01/07 04:31:50;;;;;;;;;;;;;;;;;;;;;
2024/01/07 04:34:49;;;;;;;;;0.67;0.00;;;;;14.05;59.77;99356.47;146615;588;46016;-67
2024/01/07 04:37:47;;;;;;;;;0.00;0.00;;;;;14.09;60.06;99345.22;146624;589;46021;-70
2024/01/07 04:40:55;;;;;;;;;0.00;0.00;;;;;14.10;60.80;99333.94;146618;569;46016;-67
2024/01/07 04:44:20;;;;;;;;;1.33;0.00;;;;;10.16;61.01;98660.22;146620;612;46020;-71
2024/01/07 04:47:36;;;;;;;;;2.00;0.00;;;;;14.07;61.31;99323.47;146616;674;47010;-69
2024/01/07 04:50:37;;;;;;;;;1.00;0.00;;;;;14.07;61.38;99305.22;146624;573;46020;-71
2024/01/07 04:53:40;;;;;;;;;0.00;0.00;;;;;14.01;61.07;99298.19;146619;599;46016;-68
2024/01/07 04:56:44;;;;;;;;;0.00;0.00;;;;;14.07;61.17;99303.47;146620;579;46020;-70
2024/01/07 04:59:38;;;;;;;;;1.00;0.00;;;;;10.91;60.82;98767.03;146620;567;47011;-68
2024/01/07 05:02:34;;;;;;;;;0.00;0.00;;;;;14.07;60.96;99307.81;146622;563;45020;-70
2024/01/07 05:05:38;;;;;;;;;;;;;;;;;;;;;
2024/01/07 05:08:54;;;;;;;;;0.33;0.33;;;;;14.08;60.07;99294.84;146617;647;46020;-68
2024/01/07 05:11:47;;;;;;;;;0.00;0.00;;;;;14.06;59.92;99300.87;146614;611;46012;-69
2024/01/07 05:14:40;;;;;;;;;0.00;0.00;;;;;14.08;59.87;99296.53;146624;605;46008;-69
2024/01/07 05:17:34;;;;;;;;;0.67;0.00;;;;;14.08;60.26;99305.25;146615;654;47010;-65
2024/01/07 05:20:32;;;;;;;;;0.00;0.00;;;;;14.05;60.64;99301.75;146620;584;46020;-66
2024/01/07 05:23:30;;;;;;;;;1.67;0.00;;;;;14.03;60.17;99300.81;146619;646;46016;-65
2024/01/07 05:26:22;;;;;;;;;0.00;0.00;;;;;14.04;59.31;99305.19;146619;589;47020;-66
2024/01/07 05:29:19;;;;;;;;;0.33;0.00;;;;;14.02;58.59;99291.25;146618;573;46016;-66
2024/01/07 05:32:03;;;;;;;;;0.00;0.00;;;;;14.01;58.97;99287.75;146711;577;46014;-66
2024/01/07 05:35:04;;;;;;;;;0.00;0.00;;;;;14.06;58.61;99306.09;146624;619;47014;-67
2024/01/07 05:38:13;;;;;;;;;1.00;0.00;;;;;14.10;58.53;99311.34;146631;645;46021;-65
2024/01/07 05:41:09;;;;;;;;;0.00;0.00;;;;;14.18;58.84;99308.88;146626;575;46917;-67
2024/01/07 05:44:25;;;;;;;;;0.75;0.25;;;;;14.23;59.01;99298.50;146629;585;46020;-66
2024/01/07 05:47:28;;;;;;;;;0.00;0.00;;;;;14.17;57.99;99291.44;146621;648;46016;-68
2024/01/07 05:50:33;;;;;;;;;0.00;0.00;;;;;14.02;57.68;99273.03;146628;575;46014;-69
2024/01/07 05:53:28;;;;;;;;;0.00;0.00;;;;;14.21;58.17;99321.94;146626;569;46016;-69
2024/01/07 05:56:24;;;;;;;;;0.33;0.33;;;;;14.24;58.63;99302.88;146627;569;46020;-71
2024/01/07 05:59:16;;;;;;;;;0.00;0.00;;;;;14.26;58.60;99311.56;146624;588;46017;-70
2024/01/07 06:02:08;;;;;;;;;2.50;0.00;;;;;14.20;58.78;99290.63;146629;612;46020;-69
2024/01/07 06:05:01;;;;;;;;;;;;;;;;;;;;;
2024/01/07 06:07:56;;;;;;;;;0.00;0.00;;;;;14.26;58.29;99311.56;146625;570;46016;-68
2024/01/07 06:11:00;;;;;;;;;0.00;0.00;;;;;14.32;57.29;99337.72;146630;609;47010;-68
2024/01/07 06:13:53;;;;;;;;;1.25;0.00;;;;;14.35;56.88;99342.12;146620;570;46016;-69
2024/01/07 06:16:52;;;;;;;;;0.00;0.00;;;;;14.39;56.09;99336.06;146632;592;46010;-69
2024/01/07 06:19:55;;;;;;;;;0.33;0.00;;;;;14.41;55.82;99353.50;146627;574;46013;-68
2024/01/07 06:22:52;;;;;;;;;0.00;0.00;;;;;14.46;55.46;99340.53;146630;637;46010;-68
2024/01/07 06:25:57;;;;;;;;;0.00;0.00;;;;;14.47;55.60;99318.81;146626;623;47013;-67
2024/01/07 06:28:55;;;;;;;;;0.00;0.00;;;;;14.52;55.21;99327.63;146625;571;48021;-69
2024/01/07 06:31:49;;;;;;;;;0.00;0.00;;;;;14.53;54.72;99340.66;146628;566;46012;-66
2024/01/07 06:34:49;;;;;;;;;0.00;0.00;;;;;14.62;55.10;99346.88;146626;572;46021;-70
2024/01/07 06:37:48;;;;;;;;;0.33;0.00;;;;;14.67;54.91;99356.50;146626;619;46012;-66
2024/01/07 06:40:52;;;;;;;;;0.00;0.00;;;;;14.76;54.16;99347.91;146631;585;46010;-68
2024/01/07 06:43:52;;;;;;;;;0.00;0.00;;;;;14.91;53.83;99349.81;146623;588;47014;-66
2024/01/07 06:47:00;;;;;;;;;0.25;0.00;;;;;15.06;54.91;99351.75;146630;609;46010;-67
2024/01/07 06:49:55;;;;;;;;;0.00;0.00;;;;;15.12;54.90;99357.91;146623;571;47016;-68
2024/01/07 06:52:46;;;;;;;;;0.00;0.00;;;;;15.28;53.57;99330.22;146631;634;46010;-66
2024/01/07 06:55:47;;;;;;;;;1.00;0.00;;;;;15.64;53.12;99318.38;146627;582;46017;-68
2024/01/07 06:58:47;;;;;;;;;1.00;0.00;;;;;15.90;51.42;99327.28;146626;573;47020;-67
2024/01/07 07:01:49;;;;;;;;;0.00;0.00;;;;;15.90;50.51;99327.28;146622;607;47028;-67
2024/01/07 07:04:50;;;;;;;;;0.00;0.00;;;;;15.89;50.32;99319.47;146626;652;45021;-68
2024/01/07 07:07:45;;;;;;;;;0.00;0.00;;;;;15.84;50.61;99324.63;146621;569;47012;-66
2024/01/07 07:10:40;;;;;;;;;0.00;0.00;;;;;15.80;50.78;99340.28;146624;593;47010;-68
2024/01/07 07:13:38;;;;;;;;;0.00;0.00;;;;;15.69;51.63;99316.69;146617;660;47012;-68
2024/01/07 07:16:32;;;;;;;;;0.00;0.00;;;;;15.61;51.15;99306.16;146624;705;46020;-66
2024/01/07 07:19:24;;;;;;;;;0.00;0.00;;;;;15.58;51.11;99334.00;146620;696;46013;-68
2024/01/07 07:22:20;;;;;;;;;9.75;8.00;;;;;15.54;50.82;99356.56;146622;612;47010;-67
2024/01/07 07:25:15;;;;;;;;;7.67;4.67;;;;;15.51;51.69;99340.00;146620;583;47017;-67
2024/01/07 07:28:16;;;;;;;;;0.00;0.00;;;;;15.48;52.21;99341.75;146623;631;46021;-68
2024/01/07 07:31:08;;;;;;;;;0.00;0.00;;;;;15.45;52.58;99346.03;146618;581;46014;-68
2024/01/07 07:34:10;;;;;;;;;0.00;0.00;;;;;15.37;52.87;99355.56;146624;564;45021;-69
2024/01/07 07:37:09;;;;;;;;;0.00;0.00;;;;;15.33;52.61;99353.78;146616;598;47016;-66
2024/01/07 07:40:04;;;;;;;;;1.00;0.00;;;;;15.24;53.70;99344.97;146618;639;47020;-68
2024/01/07 07:43:06;;;;;;;;;2.67;0.67;;;;;15.29;54.30;99363.28;146614;573;46016;-65
2024/01/07 07:46:05;;;;;;;;;2.00;0.00;;;;;15.28;54.45;99338.03;146621;590;47020;-65
2024/01/07 07:49:11;;;;;;;;;0.00;0.00;;;;;15.31;55.00;99351.13;146620;595;46016;-65
2024/01/07 07:52:23;;;;;;;;;2.00;2.00;;;;;15.31;55.21;99342.44;146625;569;46010;-66
2024/01/07 07:55:15;;;;;;;;;1.00;1.00;;;;;15.32;54.70;99352.87;146618;717;46015;-66
2024/01/07 07:58:21;;;;;;;;;0.33;0.33;;;;;15.33;54.96;99369.44;146620;573;46021;-65
2024/01/07 08:01:24;;;;;;;;;0.00;0.00;;;;;15.37;55.19;99351.19;146613;566;47012;-66
2024/01/07 08:04:30;;;;;;;;;0.00;0.00;;;;;13.44;56.68;99004.81;146625;634;46010;-66
2024/01/07 08:07:31;;;;;;;;;0.00;0.00;;;;;13.95;55.63;99068.78;146619;597;46016;-66
2024/01/07 08:10:23;;;;;;;;;0.00;0.00;;;;;15.84;56.00;99355.13;146621;564;46020;-70
2024/01/07 08:13:26;;;;;;;;;3.00;1.00;;;;;16.02;55.91;99362.25;146620;602;46016;-68
2024/01/07 08:16:18;;;;;;;;;0.00;0.00;;;;;16.02;54.89;99396.25;146623;590;46020;-67
2024/01/07 08:19:13;;;;;;;;;0.33;0.00;;;;;16.08;56.65;99371.00;146618;612;46014;-69
2024/01/07 08:22:06;;;;;;;;;2.00;1.33;;;;;16.09;56.52;99369.25;146623;672;47012;-68
2024/01/07 08:25:02;;;;;;;;;2.00;2.00;;;;;16.06;57.13;99345.72;146616;610;46025;-69
2024/01/07 08:27:57;;;;;;;;;1.00;0.33;;;;;16.03;57.71;99351.78;146624;569;46010;-68
2024/01/07 08:30:58;;;;;;;;;0.00;0.00;;;;;16.05;57.50;99377.97;146620;640;46016;-67
2024/01/07 08:33:56;;;;;;;;;1.33;0.00;;;;;16.02;57.12;99359.63;146625;583;46011;-68
2024/01/07 08:36:53;;;;;;;;;0.67;0.00;;;;;15.92;57.50;99369.16;146620;586;46016;-70
2024/01/07 08:39:45;;;;;;;;;3.67;0.00;;;;;15.87;58.08;99369.09;146626;578;45021;-70
2024/01/07 08:42:50;;;;;;;;;0.00;0.00;;;;;15.76;57.45;99364.62;146618;664;46025;-66
2024/01/07 08:45:44;;;;;;;;;0.00;0.00;;;;;15.72;58.16;99376.81;146624;580;46012;-67
2024/01/07 08:48:51;;;;;;;;;1.67;0.00;;;;;15.68;58.95;99370.69;146622;613;46012;-72
2024/01/07 08:51:45;;;;;;;;;1.00;0.00;;;;;15.64;60.21;99394.13;146625;591;46020;-67
2024/01/07 08:54:59;;;;;;;;;3.25;1.75;;;;;13.70;59.61;99059.81;146614;592;46017;-70
2024/01/07 08:57:59;;;;;;;;;0.00;0.00;;;;;15.58;60.10;99373.19;146624;588;46020;-70
2024/01/07 09:00:57;;;;;;;;;0.67;0.00;;;;;15.60;59.15;99354.00;146621;571;46014;-68
2024/01/07 09:03:54;;;;;;;;;3.00;1.00;;;;;15.64;60.93;99350.59;146622;635;47010;-71
2024/01/07 09:06:48;;;;;;;;;0.00;0.00;;;;;15.68;60.99;99351.53;146624;576;46012;-75
2024/01/07 09:09:51;;;;;;;;;0.33;0.00;;;;;15.66;61.25;99359.28;146624;651;46010;-72
2024/01/07 09:12:47;;;;;;;;;0.00;0.00;;;;;15.64;60.75;99361.03;146618;620;47016;-72
2024/01/07 09:15:40;;;;;;;;;0.00;0.00;;;;;15.63;60.05;99356.66;146626;598;46010;-69
2024/01/07 09:18:32;;;;;;;;;3.00;0.00;;;;;15.58;60.41;99350.53;146620;574;46014;-69
2024/01/07 09:21:27;;;;;;;;;0.33;0.00;;;;;15.60;60.85;99345.31;146623;607;46020;-70
2024/01/07 09:24:30;;;;;;;;;;;;;;;;;;;;;
2024/01/07 09:27:26;;;;;;;;;5.00;2.00;;;;;15.63;61.06;99338.37;146620;626;46020;-71
2024/01/07 09:30:28;;;;;;;;;;;;;;;;;;;;;
2024/01/07 09:33:26;;;;;;;;;5.00;5.00;;;;;15.68;60.85;99315.81;146625;700;46010;-70
2024/01/07 09:36:23;;;;;;;;;3.00;3.00;;;;;15.75;61.01;99310.62;146621;647;46012;-70
2024/01/07 09:39:18;;;;;;;;;2.00;1.00;;;;;15.83;60.07;99317.66;146623;608;47021;-71
2024/01/07 09:42:18;;;;;;;;;1.00;1.00;;;;;15.93;59.90;99300.31;146618;599;46016;-70
2024/01/07 09:45:17;;;;;;;;;2.25;1.00;;;;;15.97;59.12;99301.19;146620;576;46020;-69
2024/01/07 09:48:22;;;;;;;;;1.00;0.67;;;;;16.00;60.37;99286.41;146619;597;46016;-70
2024/01/07 09:51:18;;;;;;;;;7.75;7.25;;;;;16.05;60.52;99309.97;146621;637;46020;-71
2024/01/07 09:54:25;;;;;;;;;25.25;20.75;;;;;16.08;60.13;99295.19;146616;628;46016;-70
2024/01/07 09:57:18;;;;;;;;;19.50;14.75;;;;;16.06;60.53;99289.06;146620;630;46010;-71
2024/01/07 10:00:21;;;;;;;;;18.50;18.00;;;;;16.00;61.30;99296.88;146617;593;46016;-69
2024/01/07 10:03:18;;;;;;;;;14.75;10.00;;;;;15.99;61.14;99299.47;146620;627;46021;-70
2024/01/07 10:06:14;;;;;;;;;1.33;0.00;;;;;15.76;60.96;99270.56;146621;572;46012;-71
2024/01/07 10:09:40;;;;;;;;;2.00;1.00;;;;;15.96;61.50;99292.50;146628;576;46011;-70
2024/01/07 10:12:35;;;;;;;;;0.00;0.00;;;;;15.98;60.47;99303.84;146614;565;46016;-74
2024/01/07 10:15:30;;;;;;;;;0.00;0.00;;;;;16.08;60.33;99321.34;146623;589;46010;-71
2024/01/07 10:18:31;;;;;;;;;2.00;1.33;;;;;16.15;60.31;99307.41;146618;583;46017;-72
2024/01/07 10:21:22;;;;;;;;;0.00;0.00;;;;;16.22;60.43;99297.00;146624;663;46020;-71
2024/01/07 10:24:24;;;;;;;;;2.00;0.00;;;;;16.26;60.95;99291.81;146619;609;47016;-70
2024/01/07 10:27:22;;;;;;;;;1.00;1.00;;;;;16.27;60.81;99290.06;146626;616;46010;-71
2024/01/07 10:30:25;;;;;;;;;1.00;1.00;;;;;16.28;60.88;99282.22;146620;564;47012;-72
2024/01/07 10:33:23;;;;;;;;;1.00;1.00;;;;;16.30;61.53;99274.38;146623;650;46010;-70
2024/01/07 10:36:16;;;;;;;;;0.00;0.00;;;;;16.33;60.50;99274.41;146621;670;46028;-71
2024/01/07 10:39:16;;;;;;;;;1.33;1.00;;;;;16.33;60.75;99271.78;146622;573;47013;-71
2024/01/07 10:42:10;;;;;;;;;1.00;1.00;;;;;16.35;60.54;99264.78;146620;601;47918;-72
2024/01/07 10:45:14;;;;;;;;;0.00;0.00;;;;;16.36;59.86;99269.19;146624;633;46020;-71
2024/01/07 10:48:25;;;;;;;;;1.67;1.33;;;;;16.38;60.20;99268.28;146618;575;46016;-70
2024/01/07 10:51:34;;;;;;;;;3.00;2.25;;;;;16.40;58.28;99260.47;146623;594;46020;-70
2024/01/07 10:54:33;;;;;;;;;1.00;1.00;;;;;16.42;58.84;99263.06;146621;633;45017;-73
2024/01/07 10:57:52;;;;;;;;;3.25;3.00;;;;;16.44;59.68;99243.91;146623;576;46020;-71
2024/01/07 11:00:50;;;;;;;;;4.33;1.33;;;;;16.43;60.50;99260.47;146619;565;46017;-72
2024/01/07 11:04:28;;;;;;;;;7.50;6.25;;;;;14.43;60.61;98923.25;146620;560;46021;-71
2024/01/07 11:08:07;;;;;;;;;0.00;0.00;;;;;14.40;59.83;98916.28;146619;569;46012;-73
2024/01/07 11:11:41;;;;;;;;;1.00;0.00;;;;;16.30;59.18;99237.75;146621;563;46010;-70
2024/01/07 11:14:51;;;;;;;;;0.00;0.00;;;;;16.27;61.32;99233.38;146618;571;47016;-73
2024/01/07 11:18:01;;;;;;;;;0.67;0.67;;;;;16.26;61.52;99238.59;146622;597;46020;-69
2024/01/07 11:21:09;;;;;;;;;1.00;0.00;;;;;16.25;62.50;99249.94;146618;579;46016;-72
2024/01/07 11:24:04;;;;;;;;;4.00;3.00;;;;;16.25;62.39;99257.78;146624;581;46010;-72
2024/01/07 11:27:19;;;;;;;;;0.00;0.00;;;;;16.25;59.26;99245.56;146619;565;47014;-71
2024/01/07 11:30:23;;;;;;;;;2.50;1.50;;;;;16.24;61.28;99251.69;146623;593;46021;-72
2024/01/07 11:33:23;;;;;;;;;1.33;1.33;;;;;16.27;61.66;99245.59;146621;569;46012;-72
2024/01/07 11:36:19;;;;;;;;;0.33;0.00;;;;;16.28;59.90;99245.59;146623;596;46012;-72
2024/01/07 11:39:27;;;;;;;;;2.33;1.00;;;;;14.41;60.04;98920.63;146618;579;47016;-69
2024/01/07 11:42:23;;;;;;;;;8.00;8.00;;;;;16.22;61.40;99203.72;146618;690;47020;-71
2024/01/07 11:45:16;;;;;;;;;4.00;2.67;;;;;16.35;61.26;99210.78;146620;665;46012;-73
2024/01/07 11:48:11;;;;;;;;;10.75;10.00;;;;;16.36;62.50;99212.50;146619;633;47020;-71
2024/01/07 11:51:14;;;;;;;;;11.00;10.75;;;;;16.38;63.31;99221.22;146616;628;46014;-70
2024/01/07 11:54:15;;;;;;;;;22.25;21.50;;;;;16.41;62.28;99220.34;146622;633;45021;-72
2024/01/07 11:57:07;;;;;;;;;3.50;3.25;;;;;16.44;60.81;99216.87;146617;651;46016;-72
2024/01/07 12:00:04;;;;;;;;;4.00;3.00;;;;;16.46;62.44;99223.87;146619;582;46020;-72
2024/01/07 12:03:02;;;;;;;;;3.67;3.33;;;;;16.45;61.95;99222.13;146623;607;46012;-71
2024/01/07 12:06:06;;;;;;;;;1.33;1.00;;;;;16.43;61.45;99204.69;146621;642;46020;-72
2024/01/07 12:08:59;;;;;;;;;0.00;0.00;;;;;16.38;60.21;99195.06;146617;588;47012;-71
2024/01/07 12:11:59;;;;;;;;;1.00;1.00;;;;;16.38;60.15;99202.91;146623;703;46010;-72
2024/01/07 12:15:02;;;;;;;;;19.75;13.25;;;;;16.43;59.73;99202.94;146620;682;47012;-71
2024/01/07 12:18:05;;;;;;;;;0.67;0.00;;;;;16.46;58.31;99197.72;146620;611;47020;-72
2024/01/07 12:21:07;;;;;;;;;5.00;4.00;;;;;16.48;56.99;99198.59;146618;569;46016;-71
2024/01/07 12:24:20;;;;;;;;;;;;;;;;;;;;;
2024/01/07 12:27:16;;;;;;;;;5.67;3.67;;;;;16.48;56.66;99195.09;146618;578;46917;-71
2024/01/07 12:30:22;;;;;;;;;24.25;19.75;;;;;16.49;56.60;99209.94;146625;604;45020;-72
2024/01/07 12:33:18;;;;;;;;;16.25;12.25;;;;;16.50;55.92;99209.06;146616;571;46014;-72
2024/01/07 12:36:11;;;;;;;;;3.33;3.00;;;;;16.48;56.75;99195.09;146621;697;46021;-72
2024/01/07 12:39:04;;;;;;;;;3.00;3.00;;;;;16.47;56.58;99207.28;146622;658;45034;-73
2024/01/07 12:42:16;;;;;;;;;2.00;2.00;;;;;16.47;57.41;99214.28;146623;582;46020;-72
2024/01/07 12:45:14;;;;;;;;;5.00;4.00;;;;;16.49;59.31;99242.19;146622;589;46013;-72
2024/01/07 12:48:14;;;;;;;;;19.00;18.00;;;;;16.51;64.86;99261.41;146620;610;46020;-74
2024/01/07 12:51:21;;;;;;;;;42.25;33.50;;;;;16.42;66.25;99279.69;146617;587;46016;-72
2024/01/07 12:54:19;;;;;;;;;28.00;24.00;;;;;16.22;68.32;99287.41;146617;582;46020;-72
2024/01/07 12:57:25;;;;;;;;;30.75;26.25;;;;;16.02;71.13;99296.88;146615;612;47012;-71
2024/01/07 13:00:35;;;;;;;;;34.50;29.50;;;;;15.75;74.11;99308.88;146618;637;46021;-72
2024/01/07 13:03:33;;;;;;;;;29.50;25.50;;;;;15.48;73.15;99323.44;146620;677;46016;-72
2024/01/07 13:06:26;;;;;;;;;21.75;20.50;;;;;15.29;73.97;99331.94;146617;574;46021;-72
2024/01/07 13:09:24;;;;;;;;;38.25;31.00;;;;;15.12;74.95;99355.28;146617;598;47024;-72
2024/01/07 13:12:19;;;;;;;;;38.25;33.25;;;;;15.00;74.42;99358.63;146618;634;47020;-71
2024/01/07 13:15:19;;;;;;;;;29.50;25.00;;;;;14.92;74.11;99343.72;146615;608;47013;-70
2024/01/07 13:18:14;;;;;;;;;20.75;19.50;;;;;14.90;73.89;99348.06;146621;563;46012;-71
2024/01/07 13:21:06;;;;;;;;;33.50;29.25;;;;;14.94;73.85;99355.06;146619;581;46012;-71
2024/01/07 13:24:01;;;;;;;;;23.25;20.00;;;;;14.94;73.53;99335.06;146617;571;46020;-70
2024/01/07 13:26:58;;;;;;;;;20.00;19.00;;;;;14.90;74.35;99321.97;146616;703;46016;-70
2024/01/07 13:29:55;;;;;;;;;16.00;15.00;;;;;14.78;75.00;99294.00;146620;578;46020;-71
2024/01/07 13:33:09;;;;;;;;;;;;;;;;;;;;;
2024/01/07 13:36:13;;;;;;;;;14.50;13.25;;;;;14.51;73.28;99294.53;146620;577;46010;-70
2024/01/07 13:39:11;;;;;;;;;38.75;31.50;;;;;14.47;74.01;99285.78;146617;642;47014;-70
2024/01/07 13:42:15;;;;;;;;;20.00;19.00;;;;;14.50;74.46;99304.06;146618;565;46020;-70
2024/01/07 13:45:08;;;;;;;;;28.00;25.00;;;;;14.55;75.00;99309.41;146612;601;46919;-71
2024/01/07 13:48:06;;;;;;;;;20.25;18.75;;;;;14.65;76.01;99326.03;146615;588;47020;-70
2024/01/07 13:51:02;;;;;;;;;35.00;32.00;;;;;14.74;75.31;99320.94;146614;569;49013;-71
2024/01/07 13:54:10;;;;;;;;;22.00;17.75;;;;;14.85;75.15;99310.59;146618;625;46020;-69
2024/01/07 13:57:21;;;;;;;;;35.75;31.25;;;;;14.96;75.33;99296.81;146619;589;46012;-70
2024/01/07 14:00:20;;;;;;;;;6.00;6.00;;;;;15.13;72.90;99289.16;146615;645;47010;-69
2024/01/07 14:03:17;;;;;;;;;7.50;6.25;;;;;15.35;73.42;99276.28;146618;569;46012;-69
2024/01/07 14:06:22;;;;;;;;;7.67;5.33;;;;;13.76;71.54;98952.22;146621;636;46010;-69
2024/01/07 14:09:17;;;;;;;;;6.50;5.75;;;;;16.04;71.07;99295.13;146615;574;47016;-69
2024/01/07 14:12:12;;;;;;;;;19.50;18.50;;;;;16.28;70.15;99304.88;146620;613;46020;-69
2024/01/07 14:15:10;;;;;;;;;18.75;16.75;;;;;16.50;71.18;99311.09;146616;591;46017;-70
2024/01/07 14:18:08;;;;;;;;;25.50;20.75;;;;;16.67;69.68;99316.41;146616;611;47020;-69